sensor_id;sensor_type;location;lat;lon;timestamp;P1;durP1;ratioP1;P2;durP2;ratioP2
32826;SDS011;51059;42.058;27.986;2024-03-17T00:00:22;30.23;;;26.93;;
32826;SDS011;51059;42.058;27.986;2024-03-17T00:02:49;30.00;;;26.80;;
32826;SDS011;51059;42.058;27.986;2024-03-17T00:05:15;28.73;;;25.63;;
32826;SDS011;51059;42.058;27.986;2024-03-17T00:07:44;27.90;;;25.00;;
32826;SDS011;51059;42.058;27.986;2024-03-17T00:10:10;28.73;;;25.63;;
32826;SDS011;51059;42.058;27.986;2024-03-17T00:12:36;27.77;;;24.97;;
32826;SDS011;51059;42.058;27.986;2024-03-17T00:15:03;27.77;;;24.93;;
32826;SDS011;51059;42.058;27.986;2024-03-17T00:17:31;28.90;;;24.60;;
32826;SDS011;51059;42.058;27.986;2024-03-17T00:19:59;26.40;;;23.17;;
32826;SDS011;51059;42.058;27.986;2024-03-17T00:22:27;25.77;;;23.07;;
32826;SDS011;51059;42.058;27.986;2024-03-17T00:24:53;25.50;;;22.90;;
32826;SDS011;51059;42.058;27.986;2024-03-17T00:27:19;25.93;;;23.23;;
32826;SDS011;51059;42.058;27.986;2024-03-17T00:29:45;26.97;;;24.07;;
32826;SDS011;51059;42.058;27.986;2024-03-17T00:32:11;26.53;;;23.73;;
32826;SDS011;51059;42.058;27.986;2024-03-17T00:34:37;26.33;;;23.57;;
32826;SDS011;51059;42.058;27.986;2024-03-17T00:37:03;25.87;;;23.17;;
32826;SDS011;51059;42.058;27.986;2024-03-17T00:39:29;26.10;;;23.40;;
32826;SDS011;51059;42.058;27.986;2024-03-17T00:41:55;25.93;;;23.33;;
32826;SDS011;51059;42.058;27.986;2024-03-17T00:44:21;25.87;;;23.10;;
32826;SDS011;51059;42.058;27.986;2024-03-17T00:46:47;26.03;;;23.27;;
32826;SDS011;51059;42.058;27.986;2024-03-17T00:49:13;24.70;;;22.03;;
32826;SDS011;51059;42.058;27.986;2024-03-17T00:51:39;22.50;;;20.23;;
32826;SDS011;51059;42.058;27.986;2024-03-17T00:54:05;22.70;;;20.30;;
32826;SDS011;51059;42.058;27.986;2024-03-17T00:56:31;21.77;;;19.57;;
32826;SDS011;51059;42.058;27.986;2024-03-17T00:58:58;22.30;;;19.90;;
32826;SDS011;51059;42.058;27.986;2024-03-17T01:01:24;22.87;;;20.57;;
32826;SDS011;51059;42.058;27.986;2024-03-17T01:03:50;30.37;;;26.70;;
32826;SDS011;51059;42.058;27.986;2024-03-17T01:06:16;30.70;;;27.40;;
32826;SDS011;51059;42.058;27.986;2024-03-17T01:08:42;31.43;;;26.47;;
32826;SDS011;51059;42.058;27.986;2024-03-17T01:11:13;25.30;;;22.60;;
32826;SDS011;51059;42.058;27.986;2024-03-17T01:13:41;23.23;;;20.83;;
32826;SDS011;51059;42.058;27.986;2024-03-17T01:16:08;24.33;;;21.83;;
32826;SDS011;51059;42.058;27.986;2024-03-17T01:18:34;25.27;;;22.30;;
32826;SDS011;51059;42.058;27.986;2024-03-17T01:21:03;26.80;;;24.00;;
32826;SDS011;51059;42.058;27.986;2024-03-17T01:23:30;29.20;;;26.10;;
32826;SDS011;51059;42.058;27.986;2024-03-17T01:25:56;26.03;;;23.30;;
32826;SDS011;51059;42.058;27.986;2024-03-17T01:28:22;22.57;;;20.13;;
32826;SDS011;51059;42.058;27.986;2024-03-17T01:30:47;23.27;;;20.87;;
32826;SDS011;51059;42.058;27.986;2024-03-17T01:33:14;23.87;;;21.33;;
32826;SDS011;51059;42.058;27.986;2024-03-17T01:35:41;23.93;;;21.07;;
32826;SDS011;51059;42.058;27.986;2024-03-17T01:38:07;22.50;;;20.10;;
32826;SDS011;51059;42.058;27.986;2024-03-17T01:40:33;23.03;;;19.63;;
32826;SDS011;51059;42.058;27.986;2024-03-17T01:42:59;22.33;;;19.97;;
32826;SDS011;51059;42.058;27.986;2024-03-17T01:45:34;19.10;;;17.13;;
32826;SDS011;51059;42.058;27.986;2024-03-17T01:48:00;19.57;;;17.57;;
32826;SDS011;51059;42.058;27.986;2024-03-17T01:50:36;19.37;;;17.20;;
32826;SDS011;51059;42.058;27.986;2024-03-17T01:53:03;18.20;;;16.40;;
32826;SDS011;51059;42.058;27.986;2024-03-17T01:55:35;18.23;;;16.43;;
32826;SDS011;51059;42.058;27.986;2024-03-17T01:58:04;19.30;;;17.30;;
32826;SDS011;51059;42.058;27.986;2024-03-17T02:00:34;17.57;;;15.77;;
32826;SDS011;51059;42.058;27.986;2024-03-17T02:03:05;18.43;;;16.53;;
32826;SDS011;51059;42.058;27.986;2024-03-17T02:05:32;18.60;;;16.70;;
32826;SDS011;51059;42.058;27.986;2024-03-17T02:08:01;19.50;;;17.57;;
32826;SDS011;51059;42.058;27.986;2024-03-17T02:10:27;18.60;;;16.70;;
32826;SDS011;51059;42.058;27.986;2024-03-17T02:12:53;19.30;;;17.20;;
32826;SDS011;51059;42.058;27.986;2024-03-17T02:15:19;18.23;;;16.43;;
32826;SDS011;51059;42.058;27.986;2024-03-17T02:17:44;19.63;;;17.47;;
32826;SDS011;51059;42.058;27.986;2024-03-17T02:20:10;18.87;;;16.97;;
32826;SDS011;51059;42.058;27.986;2024-03-17T02:22:39;18.87;;;16.87;;
32826;SDS011;51059;42.058;27.986;2024-03-17T02:25:06;19.20;;;17.20;;
32826;SDS011;51059;42.058;27.986;2024-03-17T02:27:36;18.07;;;16.23;;
32826;SDS011;51059;42.058;27.986;2024-03-17T02:30:02;18.90;;;16.90;;
32826;SDS011;51059;42.058;27.986;2024-03-17T02:32:30;17.27;;;15.57;;
32826;SDS011;51059;42.058;27.986;2024-03-17T02:34:56;18.60;;;16.60;;
32826;SDS011;51059;42.058;27.986;2024-03-17T02:37:22;19.40;;;17.07;;
32826;SDS011;51059;42.058;27.986;2024-03-17T02:39:49;18.37;;;16.10;;
32826;SDS011;51059;42.058;27.986;2024-03-17T02:42:15;18.77;;;16.83;;
32826;SDS011;51059;42.058;27.986;2024-03-17T02:44:41;17.93;;;16.07;;
32826;SDS011;51059;42.058;27.986;2024-03-17T02:47:07;17.90;;;16.00;;
32826;SDS011;51059;42.058;27.986;2024-03-17T02:49:34;18.93;;;16.93;;
32826;SDS011;51059;42.058;27.986;2024-03-17T02:52:05;17.57;;;15.77;;
32826;SDS011;51059;42.058;27.986;2024-03-17T02:54:37;18.57;;;16.67;;
32826;SDS011;51059;42.058;27.986;2024-03-17T02:57:04;17.73;;;15.87;;
32826;SDS011;51059;42.058;27.986;2024-03-17T02:59:33;18.23;;;16.40;;
32826;SDS011;51059;42.058;27.986;2024-03-17T03:01:59;19.03;;;16.87;;
32826;SDS011;51059;42.058;27.986;2024-03-17T03:04:26;19.33;;;17.30;;
32826;SDS011;51059;42.058;27.986;2024-03-17T03:06:53;20.10;;;18.00;;
32826;SDS011;51059;42.058;27.986;2024-03-17T03:09:19;20.70;;;18.57;;
32826;SDS011;51059;42.058;27.986;2024-03-17T03:12:06;20.40;;;18.30;;
32826;SDS011;51059;42.058;27.986;2024-03-17T03:14:32;21.23;;;18.70;;
32826;SDS011;51059;42.058;27.986;2024-03-17T03:16:58;21.30;;;19.00;;
32826;SDS011;51059;42.058;27.986;2024-03-17T03:19:26;22.50;;;20.00;;
32826;SDS011;51059;42.058;27.986;2024-03-17T03:21:52;27.00;;;24.20;;
32826;SDS011;51059;42.058;27.986;2024-03-17T03:24:19;27.63;;;24.60;;
32826;SDS011;51059;42.058;27.986;2024-03-17T03:26:46;24.50;;;21.90;;
32826;SDS011;51059;42.058;27.986;2024-03-17T03:29:13;21.27;;;19.07;;
32826;SDS011;51059;42.058;27.986;2024-03-17T03:31:40;18.60;;;16.70;;
32826;SDS011;51059;42.058;27.986;2024-03-17T03:34:06;17.17;;;15.27;;
32826;SDS011;51059;42.058;27.986;2024-03-17T03:36:37;17.00;;;15.30;;
32826;SDS011;51059;42.058;27.986;2024-03-17T03:39:04;15.97;;;14.37;;
32826;SDS011;51059;42.058;27.986;2024-03-17T03:41:31;16.13;;;14.53;;
32826;SDS011;51059;42.058;27.986;2024-03-17T03:43:58;15.60;;;14.10;;
32826;SDS011;51059;42.058;27.986;2024-03-17T03:46:24;15.33;;;13.83;;
32826;SDS011;51059;42.058;27.986;2024-03-17T03:48:51;16.00;;;14.40;;
32826;SDS011;51059;42.058;27.986;2024-03-17T03:51:16;16.47;;;14.77;;
32826;SDS011;51059;42.058;27.986;2024-03-17T03:53:42;16.73;;;14.93;;
32826;SDS011;51059;42.058;27.986;2024-03-17T03:56:08;16.83;;;15.13;;
32826;SDS011;51059;42.058;27.986;2024-03-17T03:58:36;16.37;;;14.67;;
32826;SDS011;51059;42.058;27.986;2024-03-17T04:03:33;19.43;;;17.37;;
32826;SDS011;51059;42.058;27.986;2024-03-17T04:06:02;21.47;;;18.53;;
32826;SDS011;51059;42.058;27.986;2024-03-17T04:08:31;20.87;;;18.60;;
32826;SDS011;51059;42.058;27.986;2024-03-17T04:10:58;20.63;;;18.43;;
32826;SDS011;51059;42.058;27.986;2024-03-17T04:13:24;19.23;;;17.23;;
32826;SDS011;51059;42.058;27.986;2024-03-17T04:15:50;18.07;;;16.27;;
32826;SDS011;51059;42.058;27.986;2024-03-17T04:18:17;16.23;;;14.53;;
32826;SDS011;51059;42.058;27.986;2024-03-17T04:20:43;15.73;;;14.13;;
32826;SDS011;51059;42.058;27.986;2024-03-17T04:23:09;17.00;;;15.27;;
32826;SDS011;51059;42.058;27.986;2024-03-17T04:25:35;17.67;;;15.87;;
32826;SDS011;51059;42.058;27.986;2024-03-17T04:28:01;17.63;;;15.80;;
32826;SDS011;51059;42.058;27.986;2024-03-17T04:30:27;16.43;;;14.73;;
32826;SDS011;51059;42.058;27.986;2024-03-17T04:32:53;16.80;;;13.60;;
32826;SDS011;51059;42.058;27.986;2024-03-17T04:35:19;15.33;;;13.73;;
32826;SDS011;51059;42.058;27.986;2024-03-17T04:37:46;14.07;;;12.67;;
32826;SDS011;51059;42.058;27.986;2024-03-17T04:40:12;15.73;;;13.50;;
32826;SDS011;51059;42.058;27.986;2024-03-17T04:42:38;15.13;;;13.60;;
32826;SDS011;51059;42.058;27.986;2024-03-17T04:45:05;16.03;;;14.40;;
32826;SDS011;51059;42.058;27.986;2024-03-17T04:47:32;16.00;;;14.40;;
32826;SDS011;51059;42.058;27.986;2024-03-17T04:49:59;16.50;;;14.70;;
32826;SDS011;51059;42.058;27.986;2024-03-17T04:52:25;17.03;;;15.23;;
32826;SDS011;51059;42.058;27.986;2024-03-17T04:54:51;19.33;;;17.33;;
32826;SDS011;51059;42.058;27.986;2024-03-17T04:57:18;22.13;;;19.80;;
32826;SDS011;51059;42.058;27.986;2024-03-17T04:59:44;23.73;;;21.23;;
32826;SDS011;51059;42.058;27.986;2024-03-17T05:02:10;26.53;;;23.73;;
32826;SDS011;51059;42.058;27.986;2024-03-17T05:04:36;26.33;;;23.63;;
32826;SDS011;51059;42.058;27.986;2024-03-17T05:07:02;26.73;;;23.93;;
32826;SDS011;51059;42.058;27.986;2024-03-17T05:09:27;34.17;;;30.47;;
32826;SDS011;51059;42.058;27.986;2024-03-17T05:11:53;35.03;;;31.10;;
32826;SDS011;51059;42.058;27.986;2024-03-17T05:14:19;36.60;;;32.87;;
32826;SDS011;51059;42.058;27.986;2024-03-17T05:16:47;29.03;;;26.00;;
32826;SDS011;51059;42.058;27.986;2024-03-17T05:19:15;25.43;;;22.73;;
32826;SDS011;51059;42.058;27.986;2024-03-17T05:21:45;25.13;;;22.53;;
32826;SDS011;51059;42.058;27.986;2024-03-17T05:24:11;25.70;;;22.93;;
32826;SDS011;51059;42.058;27.986;2024-03-17T05:26:40;25.23;;;22.73;;
32826;SDS011;51059;42.058;27.986;2024-03-17T05:29:07;28.43;;;25.50;;
32826;SDS011;51059;42.058;27.986;2024-03-17T05:31:33;31.13;;;25.33;;
32826;SDS011;51059;42.058;27.986;2024-03-17T05:33:59;25.83;;;23.00;;
32826;SDS011;51059;42.058;27.986;2024-03-17T05:36:25;24.13;;;21.40;;
32826;SDS011;51059;42.058;27.986;2024-03-17T05:38:51;28.30;;;24.90;;
32826;SDS011;51059;42.058;27.986;2024-03-17T05:41:17;24.50;;;21.90;;
32826;SDS011;51059;42.058;27.986;2024-03-17T05:43:42;26.13;;;23.33;;
32826;SDS011;51059;42.058;27.986;2024-03-17T05:46:09;25.90;;;23.20;;
32826;SDS011;51059;42.058;27.986;2024-03-17T05:48:37;26.63;;;22.50;;
32826;SDS011;51059;42.058;27.986;2024-03-17T05:51:05;24.27;;;21.67;;
32826;SDS011;51059;42.058;27.986;2024-03-17T05:53:36;24.73;;;22.03;;
32826;SDS011;51059;42.058;27.986;2024-03-17T05:56:03;19.50;;;17.53;;
32826;SDS011;51059;42.058;27.986;2024-03-17T05:58:30;14.20;;;12.80;;
32826;SDS011;51059;42.058;27.986;2024-03-17T06:00:56;13.00;;;11.70;;
32826;SDS011;51059;42.058;27.986;2024-03-17T06:03:23;13.50;;;12.10;;
32826;SDS011;51059;42.058;27.986;2024-03-17T06:05:49;15.20;;;13.17;;
32826;SDS011;51059;42.058;27.986;2024-03-17T06:08:15;13.97;;;12.57;;
32826;SDS011;51059;42.058;27.986;2024-03-17T06:10:43;15.40;;;13.70;;
32826;SDS011;51059;42.058;27.986;2024-03-17T06:13:12;15.50;;;14.00;;
32826;SDS011;51059;42.058;27.986;2024-03-17T06:15:40;16.23;;;14.53;;
32826;SDS011;51059;42.058;27.986;2024-03-17T06:18:06;15.40;;;13.90;;
32826;SDS011;51059;42.058;27.986;2024-03-17T06:20:39;14.87;;;13.37;;
32826;SDS011;51059;42.058;27.986;2024-03-17T06:23:10;17.10;;;15.30;;
32826;SDS011;51059;42.058;27.986;2024-03-17T06:25:44;21.07;;;18.77;;
32826;SDS011;51059;42.058;27.986;2024-03-17T06:28:12;22.23;;;19.53;;
32826;SDS011;51059;42.058;27.986;2024-03-17T06:30:42;20.93;;;18.67;;
32826;SDS011;51059;42.058;27.986;2024-03-17T06:33:19;23.13;;;20.20;;
32826;SDS011;51059;42.058;27.986;2024-03-17T06:35:45;20.07;;;18.03;;
32826;SDS011;51059;42.058;27.986;2024-03-17T06:38:12;22.03;;;19.37;;
32826;SDS011;51059;42.058;27.986;2024-03-17T06:40:39;23.03;;;18.57;;
32826;SDS011;51059;42.058;27.986;2024-03-17T06:43:06;22.23;;;19.83;;
32826;SDS011;51059;42.058;27.986;2024-03-17T06:45:32;21.10;;;18.43;;
32826;SDS011;51059;42.058;27.986;2024-03-17T06:47:58;21.23;;;17.90;;
32826;SDS011;51059;42.058;27.986;2024-03-17T06:50:23;23.03;;;18.80;;
32826;SDS011;51059;42.058;27.986;2024-03-17T06:52:49;19.80;;;16.60;;
32826;SDS011;51059;42.058;27.986;2024-03-17T06:55:18;21.20;;;16.83;;
32826;SDS011;51059;42.058;27.986;2024-03-17T06:57:47;19.07;;;16.13;;
32826;SDS011;51059;42.058;27.986;2024-03-17T07:00:13;18.40;;;15.57;;
32826;SDS011;51059;42.058;27.986;2024-03-17T07:02:40;16.43;;;14.27;;
32826;SDS011;51059;42.058;27.986;2024-03-17T07:05:12;17.47;;;15.23;;
32826;SDS011;51059;42.058;27.986;2024-03-17T07:07:40;18.07;;;15.33;;
32826;SDS011;51059;42.058;27.986;2024-03-17T07:10:11;20.40;;;16.23;;
32826;SDS011;51059;42.058;27.986;2024-03-17T07:12:38;22.87;;;17.67;;
32826;SDS011;51059;42.058;27.986;2024-03-17T07:15:05;22.23;;;17.47;;
32826;SDS011;51059;42.058;27.986;2024-03-17T07:17:32;23.53;;;19.67;;
32826;SDS011;51059;42.058;27.986;2024-03-17T07:20:00;21.77;;;18.90;;
32826;SDS011;51059;42.058;27.986;2024-03-17T07:22:26;21.33;;;18.43;;
32826;SDS011;51059;42.058;27.986;2024-03-17T07:24:53;23.63;;;20.13;;
32826;SDS011;51059;42.058;27.986;2024-03-17T07:27:31;21.53;;;18.97;;
32826;SDS011;51059;42.058;27.986;2024-03-17T07:29:57;24.47;;;18.43;;
32826;SDS011;51059;42.058;27.986;2024-03-17T07:32:23;21.43;;;18.53;;
32826;SDS011;51059;42.058;27.986;2024-03-17T07:34:49;24.43;;;20.40;;
32826;SDS011;51059;42.058;27.986;2024-03-17T07:37:15;22.07;;;19.63;;
32826;SDS011;51059;42.058;27.986;2024-03-17T07:39:42;21.63;;;18.30;;
32826;SDS011;51059;42.058;27.986;2024-03-17T07:42:09;21.60;;;19.30;;
32826;SDS011;51059;42.058;27.986;2024-03-17T07:44:37;20.67;;;17.93;;
32826;SDS011;51059;42.058;27.986;2024-03-17T07:47:03;22.63;;;17.83;;
32826;SDS011;51059;42.058;27.986;2024-03-17T07:49:32;21.00;;;17.60;;
32826;SDS011;51059;42.058;27.986;2024-03-17T07:51:59;20.93;;;17.50;;
32826;SDS011;51059;42.058;27.986;2024-03-17T07:54:25;21.23;;;18.40;;
32826;SDS011;51059;42.058;27.986;2024-03-17T07:56:51;21.67;;;18.53;;
32826;SDS011;51059;42.058;27.986;2024-03-17T07:59:17;22.40;;;18.90;;
32826;SDS011;51059;42.058;27.986;2024-03-17T08:01:43;25.47;;;20.37;;
32826;SDS011;51059;42.058;27.986;2024-03-17T08:04:11;24.43;;;21.03;;
32826;SDS011;51059;42.058;27.986;2024-03-17T08:06:42;24.87;;;20.50;;
32826;SDS011;51059;42.058;27.986;2024-03-17T08:09:08;24.53;;;20.67;;
32826;SDS011;51059;42.058;27.986;2024-03-17T08:11:37;25.67;;;21.57;;
32826;SDS011;51059;42.058;27.986;2024-03-17T08:14:11;23.37;;;20.43;;
32826;SDS011;51059;42.058;27.986;2024-03-17T08:16:37;24.57;;;21.53;;
32826;SDS011;51059;42.058;27.986;2024-03-17T08:19:03;22.87;;;20.03;;
32826;SDS011;51059;42.058;27.986;2024-03-17T08:21:29;23.03;;;19.97;;
32826;SDS011;51059;42.058;27.986;2024-03-17T08:23:55;23.90;;;19.87;;
32826;SDS011;51059;42.058;27.986;2024-03-17T08:26:21;22.77;;;19.90;;
32826;SDS011;51059;42.058;27.986;2024-03-17T08:28:47;24.43;;;21.03;;
32826;SDS011;51059;42.058;27.986;2024-03-17T08:31:13;23.20;;;20.70;;
32826;SDS011;51059;42.058;27.986;2024-03-17T08:33:41;25.87;;;20.60;;
32826;SDS011;51059;42.058;27.986;2024-03-17T08:36:08;23.83;;;20.87;;
32826;SDS011;51059;42.058;27.986;2024-03-17T08:38:35;24.80;;;22.10;;
32826;SDS011;51059;42.058;27.986;2024-03-17T08:41:03;24.80;;;22.00;;
32826;SDS011;51059;42.058;27.986;2024-03-17T08:43:31;24.87;;;22.13;;
32826;SDS011;51059;42.058;27.986;2024-03-17T08:46:03;26.93;;;22.53;;
32826;SDS011;51059;42.058;27.986;2024-03-17T08:48:35;27.67;;;23.10;;
32826;SDS011;51059;42.058;27.986;2024-03-17T08:51:02;28.80;;;23.00;;
32826;SDS011;51059;42.058;27.986;2024-03-17T08:53:29;28.20;;;22.93;;
32826;SDS011;51059;42.058;27.986;2024-03-17T08:55:56;26.20;;;23.40;;
32826;SDS011;51059;42.058;27.986;2024-03-17T08:58:22;27.20;;;22.70;;
32826;SDS011;51059;42.058;27.986;2024-03-17T09:00:48;28.33;;;23.20;;
32826;SDS011;51059;42.058;27.986;2024-03-17T09:03:15;26.73;;;23.37;;
32826;SDS011;51059;42.058;27.986;2024-03-17T09:05:42;24.43;;;21.80;;
32826;SDS011;51059;42.058;27.986;2024-03-17T09:08:15;27.20;;;22.07;;
32826;SDS011;51059;42.058;27.986;2024-03-17T09:10:43;25.80;;;22.50;;
32826;SDS011;51059;42.058;27.986;2024-03-17T09:13:20;26.03;;;23.17;;
32826;SDS011;51059;42.058;27.986;2024-03-17T09:18:27;28.23;;;23.00;;
32826;SDS011;51059;42.058;27.986;2024-03-17T09:21:00;25.87;;;22.90;;
32826;SDS011;51059;42.058;27.986;2024-03-17T09:23:28;25.33;;;22.40;;
32826;SDS011;51059;42.058;27.986;2024-03-17T09:25:57;27.07;;;22.60;;
32826;SDS011;51059;42.058;27.986;2024-03-17T09:28:28;27.30;;;21.80;;
32826;SDS011;51059;42.058;27.986;2024-03-17T09:30:56;25.90;;;21.70;;
32826;SDS011;51059;42.058;27.986;2024-03-17T09:33:23;25.83;;;22.37;;
32826;SDS011;51059;42.058;27.986;2024-03-17T09:35:53;25.57;;;22.70;;
32826;SDS011;51059;42.058;27.986;2024-03-17T09:38:19;28.83;;;22.83;;
32826;SDS011;51059;42.058;27.986;2024-03-17T09:40:50;25.73;;;22.93;;
32826;SDS011;51059;42.058;27.986;2024-03-17T09:43:22;28.87;;;23.87;;
32826;SDS011;51059;42.058;27.986;2024-03-17T09:45:50;25.47;;;22.27;;
32826;SDS011;51059;42.058;27.986;2024-03-17T09:48:21;25.03;;;22.37;;
32826;SDS011;51059;42.058;27.986;2024-03-17T09:50:49;26.40;;;22.20;;
32826;SDS011;51059;42.058;27.986;2024-03-17T09:53:17;25.60;;;21.83;;
32826;SDS011;51059;42.058;27.986;2024-03-17T09:55:52;26.03;;;22.00;;
32826;SDS011;51059;42.058;27.986;2024-03-17T09:58:21;26.90;;;22.47;;
32826;SDS011;51059;42.058;27.986;2024-03-17T10:00:47;25.10;;;21.63;;
32826;SDS011;51059;42.058;27.986;2024-03-17T10:03:38;26.13;;;22.00;;
32826;SDS011;51059;42.058;27.986;2024-03-17T10:06:15;25.03;;;22.27;;
32826;SDS011;51059;42.058;27.986;2024-03-17T10:08:48;29.27;;;23.10;;
32826;SDS011;51059;42.058;27.986;2024-03-17T10:11:20;27.40;;;22.23;;
32826;SDS011;51059;42.058;27.986;2024-03-17T10:13:58;24.77;;;22.07;;
32826;SDS011;51059;42.058;27.986;2024-03-17T10:16:28;27.30;;;22.70;;
32826;SDS011;51059;42.058;27.986;2024-03-17T10:19:20;25.77;;;22.97;;
32826;SDS011;51059;42.058;27.986;2024-03-17T10:21:48;27.87;;;21.73;;
32826;SDS011;51059;42.058;27.986;2024-03-17T10:24:22;24.27;;;21.70;;
32826;SDS011;51059;42.058;27.986;2024-03-17T10:26:51;27.03;;;22.80;;
32826;SDS011;51059;42.058;27.986;2024-03-17T10:29:21;26.33;;;21.90;;
32826;SDS011;51059;42.058;27.986;2024-03-17T10:31:50;25.53;;;22.23;;
32826;SDS011;51059;42.058;27.986;2024-03-17T10:34:23;26.80;;;22.57;;
32826;SDS011;51059;42.058;27.986;2024-03-17T10:36:52;27.97;;;22.50;;
32826;SDS011;51059;42.058;27.986;2024-03-17T10:39:30;26.37;;;23.00;;
32826;SDS011;51059;42.058;27.986;2024-03-17T10:41:57;25.20;;;22.43;;
32826;SDS011;51059;42.058;27.986;2024-03-17T10:44:25;25.60;;;22.80;;
32826;SDS011;51059;42.058;27.986;2024-03-17T10:46:55;25.70;;;22.83;;
32826;SDS011;51059;42.058;27.986;2024-03-17T10:49:34;27.37;;;23.17;;
32826;SDS011;51059;42.058;27.986;2024-03-17T10:52:02;27.80;;;23.50;;
32826;SDS011;51059;42.058;27.986;2024-03-17T10:54:29;26.60;;;22.70;;
32826;SDS011;51059;42.058;27.986;2024-03-17T10:56:56;28.03;;;22.90;;
32826;SDS011;51059;42.058;27.986;2024-03-17T10:59:40;27.73;;;22.80;;
32826;SDS011;51059;42.058;27.986;2024-03-17T11:02:20;27.53;;;23.37;;
32826;SDS011;51059;42.058;27.986;2024-03-17T11:04:57;25.80;;;22.83;;
32826;SDS011;51059;42.058;27.986;2024-03-17T11:07:28;26.70;;;23.53;;
32826;SDS011;51059;42.058;27.986;2024-03-17T11:09:56;29.23;;;24.80;;
32826;SDS011;51059;42.058;27.986;2024-03-17T11:17:46;28.27;;;23.70;;
32826;SDS011;51059;42.058;27.986;2024-03-17T11:20:17;25.90;;;22.63;;
32826;SDS011;51059;42.058;27.986;2024-03-17T11:22:51;26.27;;;22.87;;
32826;SDS011;51059;42.058;27.986;2024-03-17T11:27:56;27.30;;;23.50;;
32826;SDS011;51059;42.058;27.986;2024-03-17T11:39:01;25.90;;;23.10;;
32826;SDS011;51059;42.058;27.986;2024-03-17T11:41:47;27.43;;;23.83;;
32826;SDS011;51059;42.058;27.986;2024-03-17T11:44:24;27.27;;;23.23;;
32826;SDS011;51059;42.058;27.986;2024-03-17T11:47:00;29.47;;;24.00;;
32826;SDS011;51059;42.058;27.986;2024-03-17T11:49:33;27.27;;;24.37;;
32826;SDS011;51059;42.058;27.986;2024-03-17T11:52:08;26.10;;;23.30;;
32826;SDS011;51059;42.058;27.986;2024-03-17T11:54:38;25.30;;;22.70;;
32826;SDS011;51059;42.058;27.986;2024-03-17T11:57:20;26.73;;;22.83;;
32826;SDS011;51059;42.058;27.986;2024-03-17T11:59:50;25.93;;;22.93;;
32826;SDS011;51059;42.058;27.986;2024-03-17T12:02:21;26.93;;;22.97;;
32826;SDS011;51059;42.058;27.986;2024-03-17T12:04:51;27.97;;;23.27;;
32826;SDS011;51059;42.058;27.986;2024-03-17T12:07:18;25.43;;;22.43;;
32826;SDS011;51059;42.058;27.986;2024-03-17T12:09:53;25.90;;;23.10;;
32826;SDS011;51059;42.058;27.986;2024-03-17T12:12:21;27.27;;;22.90;;
32826;SDS011;51059;42.058;27.986;2024-03-17T12:14:49;28.53;;;23.23;;
32826;SDS011;51059;42.058;27.986;2024-03-17T12:17:20;24.53;;;21.93;;
32826;SDS011;51059;42.058;27.986;2024-03-17T12:19:48;25.83;;;23.03;;
32826;SDS011;51059;42.058;27.986;2024-03-17T12:22:18;26.67;;;23.77;;
32826;SDS011;51059;42.058;27.986;2024-03-17T12:24:50;25.60;;;22.90;;
32826;SDS011;51059;42.058;27.986;2024-03-17T12:27:20;26.80;;;22.53;;
32826;SDS011;51059;42.058;27.986;2024-03-17T12:29:50;28.87;;;25.47;;
32826;SDS011;51059;42.058;27.986;2024-03-17T12:32:18;26.73;;;23.83;;
32826;SDS011;51059;42.058;27.986;2024-03-17T12:34:47;28.80;;;23.53;;
32826;SDS011;51059;42.058;27.986;2024-03-17T12:37:17;26.33;;;23.53;;
32826;SDS011;51059;42.058;27.986;2024-03-17T12:39:44;27.53;;;24.13;;
32826;SDS011;51059;42.058;27.986;2024-03-17T12:44:46;28.07;;;23.73;;
32826;SDS011;51059;42.058;27.986;2024-03-17T12:47:16;26.23;;;23.40;;
32826;SDS011;51059;42.058;27.986;2024-03-17T12:52:22;29.30;;;23.57;;
32826;SDS011;51059;42.058;27.986;2024-03-17T12:55:05;26.33;;;23.40;;
32826;SDS011;51059;42.058;27.986;2024-03-17T12:57:51;25.37;;;22.67;;
32826;SDS011;51059;42.058;27.986;2024-03-17T13:00:37;26.63;;;23.07;;
32826;SDS011;51059;42.058;27.986;2024-03-17T13:03:07;25.70;;;22.03;;
32826;SDS011;51059;42.058;27.986;2024-03-17T13:05:34;26.10;;;22.87;;
32826;SDS011;51059;42.058;27.986;2024-03-17T13:08:00;27.07;;;23.97;;
32826;SDS011;51059;42.058;27.986;2024-03-17T13:10:27;27.87;;;23.53;;
32826;SDS011;51059;42.058;27.986;2024-03-17T13:15:33;26.70;;;23.87;;
32826;SDS011;51059;42.058;27.986;2024-03-17T13:18:03;25.47;;;22.77;;
32826;SDS011;51059;42.058;27.986;2024-03-17T13:20:30;26.60;;;23.53;;
32826;SDS011;51059;42.058;27.986;2024-03-17T13:22:56;29.07;;;25.33;;
32826;SDS011;51059;42.058;27.986;2024-03-17T13:25:24;27.50;;;24.33;;
32826;SDS011;51059;42.058;27.986;2024-03-17T13:27:53;29.17;;;25.47;;
32826;SDS011;51059;42.058;27.986;2024-03-17T13:30:20;29.83;;;25.00;;
32826;SDS011;51059;42.058;27.986;2024-03-17T13:32:52;32.87;;;26.23;;
32826;SDS011;51059;42.058;27.986;2024-03-17T13:35:24;29.27;;;25.43;;
32826;SDS011;51059;42.058;27.986;2024-03-17T13:37:52;29.67;;;25.70;;
32826;SDS011;51059;42.058;27.986;2024-03-17T13:40:20;28.77;;;25.63;;
32826;SDS011;51059;42.058;27.986;2024-03-17T13:42:48;32.70;;;26.40;;
32826;SDS011;51059;42.058;27.986;2024-03-17T13:45:17;28.77;;;25.57;;
32826;SDS011;51059;42.058;27.986;2024-03-17T13:48:02;29.30;;;26.17;;
32826;SDS011;51059;42.058;27.986;2024-03-17T13:50:35;30.43;;;27.13;;
32826;SDS011;51059;42.058;27.986;2024-03-17T13:53:02;29.53;;;26.33;;
32826;SDS011;51059;42.058;27.986;2024-03-17T13:55:28;30.87;;;27.43;;
32826;SDS011;51059;42.058;27.986;2024-03-17T13:57:57;31.50;;;27.57;;
32826;SDS011;51059;42.058;27.986;2024-03-17T14:00:30;32.30;;;27.80;;
32826;SDS011;51059;42.058;27.986;2024-03-17T14:02:57;30.83;;;27.20;;
32826;SDS011;51059;42.058;27.986;2024-03-17T14:05:24;31.97;;;27.37;;
32826;SDS011;51059;42.058;27.986;2024-03-17T14:07:52;33.27;;;27.23;;
32826;SDS011;51059;42.058;27.986;2024-03-17T14:10:23;30.67;;;27.47;;
32826;SDS011;51059;42.058;27.986;2024-03-17T14:12:50;33.47;;;27.87;;
32826;SDS011;51059;42.058;27.986;2024-03-17T14:15:16;32.03;;;28.53;;
32826;SDS011;51059;42.058;27.986;2024-03-17T14:17:43;31.77;;;28.10;;
32826;SDS011;51059;42.058;27.986;2024-03-17T14:20:10;30.43;;;26.70;;
32826;SDS011;51059;42.058;27.986;2024-03-17T14:22:40;32.90;;;28.20;;
32826;SDS011;51059;42.058;27.986;2024-03-17T14:25:12;32.03;;;27.43;;
32826;SDS011;51059;42.058;27.986;2024-03-17T14:27:42;31.47;;;26.70;;
32826;SDS011;51059;42.058;27.986;2024-03-17T14:30:10;31.30;;;27.53;;
32826;SDS011;51059;42.058;27.986;2024-03-17T14:32:39;29.93;;;25.80;;
32826;SDS011;51059;42.058;27.986;2024-03-17T14:35:05;30.83;;;27.17;;
32826;SDS011;51059;42.058;27.986;2024-03-17T14:37:31;31.53;;;26.57;;
32826;SDS011;51059;42.058;27.986;2024-03-17T14:39:58;29.73;;;25.63;;
32826;SDS011;51059;42.058;27.986;2024-03-17T14:42:24;30.37;;;27.13;;
32826;SDS011;51059;42.058;27.986;2024-03-17T14:44:50;34.07;;;28.00;;